createdAt,value
2019-02-23T00:00:05.126Z,40.92
2019-02-23T00:06:09.666Z,39.95
2019-02-23T00:12:13.989Z,39.90
2019-02-23T00:18:18.264Z,39.00
2019-02-23T00:24:22.506Z,40.10
2019-02-23T00:30:26.724Z,39.27
2019-02-23T00:36:31.068Z,39.75
2019-02-23T00:42:35.273Z,39.10
2019-02-23T00:48:39.685Z,41.37
2019-02-23T00:54:43.950Z,42.67
2019-02-23T01:00:48.184Z,42.70
2019-02-23T01:06:52.405Z,42.23
2019-02-23T01:12:56.642Z,48.00
2019-02-23T01:19:00.949Z,49.13
2019-02-23T01:25:05.614Z,48.33
2019-02-23T01:31:10.069Z,44.65
2019-02-23T01:37:14.317Z,43.60
2019-02-23T01:43:18.691Z,46.20
2019-02-23T01:49:22.981Z,44.77
2019-02-23T01:55:27.204Z,43.73
2019-02-23T02:01:31.522Z,43.00
2019-02-23T02:07:35.723Z,42.35
2019-02-23T02:13:40.028Z,42.62
2019-02-23T02:19:44.303Z,44.38
2019-02-23T02:25:48.493Z,44.27
2019-02-23T02:31:53.027Z,42.58
2019-02-23T02:37:57.232Z,42.15
2019-02-23T02:44:01.555Z,42.60
2019-02-23T02:50:06.610Z,43.52
2019-02-23T02:56:10.998Z,42.85
2019-02-23T03:02:15.305Z,42.48
2019-02-23T03:08:19.562Z,41.45
2019-02-23T03:14:23.774Z,41.02
2019-02-23T03:20:36.209Z,41.23
2019-02-23T03:26:34.193Z,40.83
2019-02-23T03:32:38.430Z,40.12
2019-02-23T03:38:42.736Z,40.43
2019-02-23T03:44:47.015Z,38.08
2019-02-23T03:50:51.292Z,38.15
2019-02-23T03:56:55.581Z,38.95
2019-02-23T04:02:59.864Z,38.45
2019-02-23T04:09:04.617Z,38.28
2019-02-23T04:15:09.024Z,39.80
2019-02-23T04:21:13.227Z,39.48
2019-02-23T04:27:17.424Z,39.78
2019-02-23T04:33:21.731Z,40.30
2019-02-23T04:39:25.994Z,39.33
2019-02-23T04:45:30.207Z,40.10
2019-02-23T04:51:34.513Z,38.05
2019-02-23T04:57:38.787Z,38.35
2019-02-23T05:03:43.084Z,37.53
2019-02-23T05:09:47.366Z,36.75
2019-02-23T05:15:51.737Z,37.10
2019-02-23T05:21:58.977Z,36.65
2019-02-23T05:28:03.175Z,36.88
2019-02-23T05:34:07.405Z,37.25
2019-02-23T05:40:11.643Z,41.75
2019-02-23T05:46:15.936Z,41.63
2019-02-23T05:52:20.230Z,37.40
2019-02-23T05:58:24.469Z,34.45
2019-02-23T06:04:29.131Z,34.57
2019-02-23T06:10:33.407Z,33.73
2019-02-23T06:16:37.866Z,35.00
2019-02-23T06:22:42.098Z,33.90
2019-02-23T06:28:47.387Z,33.37
2019-02-23T06:34:51.658Z,33.40
2019-02-23T06:40:55.870Z,32.10
2019-02-23T06:47:00.133Z,33.23
2019-02-23T06:53:04.366Z,34.07
2019-02-23T06:59:10.528Z,35.07
2019-02-23T07:05:14.966Z,34.50
2019-02-23T07:11:19.240Z,32.20
2019-02-23T07:17:23.564Z,32.67
2019-02-23T07:23:27.750Z,33.18
2019-02-23T07:29:32.039Z,31.57
2019-02-23T07:35:36.284Z,31.33
2019-02-23T07:41:40.627Z,28.20
2019-02-23T07:47:44.824Z,29.20
2019-02-23T07:53:49.156Z,29.65
2019-02-23T07:59:53.402Z,28.12
2019-02-23T08:05:57.804Z,27.20
2019-02-23T08:12:02.002Z,27.40
2019-02-23T08:18:06.295Z,28.23
2019-02-23T08:24:10.569Z,26.07
2019-02-23T08:30:14.867Z,25.70
2019-02-23T08:36:19.061Z,24.65
2019-02-23T08:42:23.275Z,24.67
2019-02-23T08:48:27.567Z,24.35
2019-02-23T08:54:31.873Z,24.45
2019-02-23T09:00:36.171Z,24.30
2019-02-23T09:06:40.402Z,21.80
2019-02-23T09:12:44.595Z,21.60
2019-02-23T09:18:48.957Z,21.85
2019-02-23T09:24:53.203Z,20.43
2019-02-23T09:30:57.523Z,21.95
2019-02-23T09:37:01.737Z,18.90
2019-02-23T09:43:06.083Z,17.10
2019-02-23T09:49:10.361Z,16.62
2019-02-23T09:55:14.625Z,13.62
2019-02-23T10:01:18.848Z,13.22
2019-02-23T10:07:23.174Z,12.15
2019-02-23T10:13:27.400Z,12.25
2019-02-23T10:19:31.730Z,11.55
2019-02-23T10:25:36.020Z,9.45
2019-02-23T10:31:40.334Z,9.25
2019-02-23T10:38:05.646Z,10.03
2019-02-23T10:44:09.948Z,10.05
2019-02-23T10:50:16.740Z,10.25
2019-02-23T10:56:20.971Z,9.63
2019-02-23T11:02:25.280Z,10.48
2019-02-23T11:08:29.484Z,11.43
2019-02-23T11:14:33.774Z,10.88
2019-02-23T11:20:38.064Z,9.63
2019-02-23T11:26:42.277Z,10.53
2019-02-23T11:32:46.650Z,10.82
2019-02-23T11:38:50.963Z,10.48
2019-02-23T11:44:55.173Z,9.83
2019-02-23T11:50:59.453Z,10.45
2019-02-23T11:57:03.754Z,10.72
2019-02-23T12:03:08.053Z,12.30
2019-02-23T12:09:12.300Z,10.10
2019-02-23T12:15:16.526Z,10.45
2019-02-23T12:21:20.812Z,10.23
2019-02-23T12:27:24.999Z,9.88
2019-02-23T12:33:29.347Z,11.12
2019-02-23T12:39:33.633Z,12.80
2019-02-23T12:45:37.913Z,10.32
2019-02-23T12:51:42.125Z,10.28
2019-02-23T12:57:46.427Z,11.05
2019-02-23T13:03:50.724Z,9.50
2019-02-23T13:09:55.884Z,9.35
2019-02-23T13:16:04.101Z,10.50
2019-02-23T13:22:35.306Z,10.43
2019-02-23T13:28:52.213Z,9.40
2019-02-23T13:35:30.059Z,9.53
2019-02-23T13:41:55.218Z,10.15
2019-02-23T13:48:36.239Z,9.70
2019-02-23T13:55:17.804Z,10.23
2019-02-23T14:01:45.268Z,9.08
2019-02-23T14:08:21.752Z,9.53
2019-02-23T14:15:06.181Z,8.88
2019-02-23T14:21:56.140Z,9.38
2019-02-23T14:28:08.759Z,9.55
2019-02-23T14:34:34.354Z,9.60
2019-02-23T14:41:09.089Z,10.88
2019-02-23T14:47:45.594Z,9.88
2019-02-23T14:54:04.758Z,9.38
2019-02-23T15:00:59.326Z,10.38
2019-02-23T15:07:42.068Z,8.90
2019-02-23T15:14:24.546Z,7.58
2019-02-23T15:21:04.890Z,7.72
2019-02-23T15:27:24.042Z,8.38
2019-02-23T15:34:09.627Z,9.00
2019-02-23T15:40:43.035Z,10.32
2019-02-23T15:47:42.799Z,9.80
2019-02-23T15:53:47.220Z,11.08
2019-02-23T15:59:51.710Z,12.28
2019-02-23T16:05:56.018Z,11.15
2019-02-23T16:12:00.434Z,11.33
2019-02-23T16:18:04.950Z,11.53
2019-02-23T16:24:09.204Z,11.75
2019-02-23T16:30:13.593Z,12.23
2019-02-23T16:36:17.827Z,11.90
2019-02-23T16:42:22.183Z,12.45
2019-02-23T16:48:26.549Z,15.30
2019-02-23T16:54:30.846Z,16.40
2019-02-23T17:00:35.169Z,18.17
2019-02-23T17:06:39.497Z,18.27
2019-02-23T17:12:43.795Z,18.60
2019-02-23T17:18:48.035Z,21.07
2019-02-23T17:24:52.292Z,22.45
2019-02-23T17:30:56.623Z,19.05
2019-02-23T17:37:00.983Z,18.98
2019-02-23T17:43:05.391Z,17.80
2019-02-23T17:49:09.726Z,17.77
2019-02-23T17:55:14.036Z,18.77
2019-02-23T18:01:18.320Z,18.77
2019-02-23T18:07:22.604Z,17.85
2019-02-23T18:13:26.866Z,17.02
2019-02-23T18:19:31.165Z,18.52
2019-02-23T18:25:35.476Z,21.68
2019-02-23T18:31:39.781Z,20.62
2019-02-23T18:37:44.042Z,20.80
2019-02-23T18:43:48.320Z,21.00
2019-02-23T18:49:53.445Z,21.30
2019-02-23T18:55:57.726Z,20.57
2019-02-23T19:02:02.058Z,19.85
2019-02-23T19:08:06.698Z,20.45
2019-02-23T19:14:10.960Z,22.32
2019-02-23T19:20:15.410Z,20.37
2019-02-23T19:26:19.621Z,20.32
2019-02-23T19:32:23.834Z,20.52
2019-02-23T19:38:28.009Z,21.48
2019-02-23T19:44:32.411Z,20.10
2019-02-23T19:50:40.155Z,19.75
2019-02-23T19:56:46.844Z,20.27
2019-02-23T20:02:50.425Z,20.32
2019-02-23T20:08:54.691Z,18.98
2019-02-23T20:14:58.887Z,19.48
2019-02-23T20:21:03.158Z,19.35
2019-02-23T20:27:07.492Z,20.43
2019-02-23T20:33:11.739Z,20.62
2019-02-23T20:39:15.947Z,20.05
2019-02-23T20:45:20.134Z,19.95
2019-02-23T20:51:24.427Z,22.62
2019-02-23T20:57:28.631Z,22.42
2019-02-23T21:03:32.801Z,22.90
2019-02-23T21:09:37.124Z,21.50
2019-02-23T21:15:41.325Z,21.23
2019-02-23T21:21:45.746Z,20.43
2019-02-23T21:27:50.026Z,20.32
2019-02-23T21:33:54.320Z,20.25
2019-02-23T21:39:58.560Z,19.00
2019-02-23T21:46:02.804Z,19.82
2019-02-23T21:52:07.008Z,19.32
2019-02-23T21:58:11.477Z,18.92
2019-02-23T22:04:15.641Z,19.70
2019-02-23T22:10:20.008Z,20.35
2019-02-23T22:16:24.312Z,19.87
2019-02-23T22:22:28.604Z,19.90
2019-02-23T22:28:32.913Z,20.52
2019-02-23T22:34:37.164Z,22.27
2019-02-23T22:40:41.458Z,21.05
2019-02-23T22:46:45.666Z,21.70
2019-02-23T22:52:49.878Z,21.00
2019-02-23T22:58:54.177Z,21.62
2019-02-23T23:04:58.538Z,20.08
2019-02-23T23:11:02.801Z,21.50
2019-02-23T23:17:07.013Z,21.70
2019-02-23T23:23:11.289Z,21.27
2019-02-23T23:29:15.485Z,22.02
2019-02-23T23:35:19.877Z,21.90
2019-02-23T23:41:24.087Z,21.95
2019-02-23T23:47:28.350Z,21.80
2019-02-23T23:53:32.544Z,20.77
2019-02-23T23:59:36.781Z,22.83
